Accueil
METAR-TAF:

METAR-TAF

Aéroports :

Coni, Italie

Aéroport international de Coni

latitude: 44-32-47N, longitude: 007-37-20E, altitude: 386 m

Observation

Le bulletin a été fait il y a 8 heures et 41 minutes, à 18:50 UTC
Vent 5 kt de ouest
Température 14°C
Humidité 72%
Pression 1018 hPa
Visibilité: 6000 m
Nuages épars à une hauteur de 6000 ft

METAR: LIMZ 181850Z 28005KT 6000 SCT060 14/09 Q1018

Heure: 05:31 (03:31 UTC)

Prévision

Le bulletin a été fait il y a 10 heures et 31 minutes, à 17:00 UTC
Prévision valable du 18 à 18 UTC au 19 à 18 UTC
Vent 5 kt de direction variable
Visibilité: 7000 m

TAF: LIMZ 181700Z 1818/1918 VRB05KT 7000 NSC

Observations et prévisions météorologiques de plus de 4000 aéroports (messages METAR et TAF).

Les stations disponibles sont représentées par des disques jaunes et rouges sur la carte.

Passer la souris dessus pour voir le nom de la station.

Cliquer dessus pour voir les observations et prévisions météorologiques.

Pour changer de carte: cliquez sur les boutons verts avec une croix noire pour zoomer, sur le bouton vert avec un tiret pour effectuer un zoom arrière, ou sur les flèches vertes pour les cartes adjacentes.


METAR-TAF: